Time,TemperatureF,DewpointF,PressureIn,WindDirection,WindDirectionDegrees,WindSpeedMPH,WindSpeedGustMPH,Humidity,HourlyPrecipIn,Conditions,Clouds,dailyrainin,SoftwareType,DateUTC
2013-06-13 00:23:00,82.0,80.0,-100.00,SW,217,6.0,-999.0,93,0.00,,,-99.99,,2013-06-13 04:23:00,
2013-06-13 00:33:00,82.0,80.0,-100.00,SW,217,6.0,-999.0,93,0.00,,,-99.99,,2013-06-13 04:33:00,
2013-06-13 00:43:00,82.0,80.0,-100.00,SW,217,6.0,-999.0,93,0.00,,,-99.99,,2013-06-13 04:43:00,
2013-06-13 01:24:00,82.0,80.0,-100.00,SW,222,6.0,-999.0,94,0.00,,,-99.99,,2013-06-13 05:24:00,
2013-06-13 01:33:00,82.0,80.0,-100.00,SW,222,6.0,-999.0,94,0.00,,,-99.99,,2013-06-13 05:33:00,
2013-06-13 01:43:00,82.0,80.0,-100.00,SW,222,6.0,-999.0,94,0.00,,,-99.99,,2013-06-13 05:43:00,
2013-06-13 02:22:00,81.0,80.0,-100.00,SW,214,8.0,-999.0,95,0.00,,,-99.99,,2013-06-13 06:22:00,
2013-06-13 02:33:00,81.0,80.0,-100.00,SW,214,8.0,-999.0,95,0.00,,,-99.99,,2013-06-13 06:33:00,
2013-06-13 02:44:00,81.0,80.0,-100.00,SW,214,8.0,-999.0,95,0.00,,,-99.99,,2013-06-13 06:44:00,
2013-06-13 03:12:00,81.0,79.0,-100.00,SW,235,7.0,-999.0,94,0.00,,,-99.99,,2013-06-13 07:12:00,
2013-06-13 03:22:00,81.0,79.0,-100.00,SW,235,7.0,-999.0,94,0.00,,,-99.99,,2013-06-13 07:22:00,
2013-06-13 03:33:00,81.0,79.0,-100.00,SW,235,7.0,-999.0,94,0.00,,,-99.99,,2013-06-13 07:33:00,
2013-06-13 03:42:00,81.0,79.0,-100.00,SW,235,7.0,-999.0,94,0.00,,,-99.99,,2013-06-13 07:42:00,
2013-06-13 04:11:00,80.0,78.0,-100.00,WSW,249,6.0,-999.0,95,0.00,,,-99.99,,2013-06-13 08:11:00,
2013-06-13 04:22:00,80.0,78.0,-100.00,WSW,249,6.0,-999.0,95,0.00,,,-99.99,,2013-06-13 08:22:00,
2013-06-13 04:32:00,80.0,78.0,-100.00,WSW,249,6.0,-999.0,95,0.00,,,-99.99,,2013-06-13 08:32:00,
2013-06-13 04:43:00,80.0,78.0,-100.00,WSW,249,6.0,-999.0,95,0.00,,,-99.99,,2013-06-13 08:43:00,
2013-06-13 05:12:00,79.0,78.0,-100.00,WSW,250,5.0,-999.0,96,0.00,,,-99.99,,2013-06-13 09:12:00,
2013-06-13 05:22:00,79.0,78.0,-100.00,WSW,250,5.0,-999.0,96,0.00,,,-99.99,,2013-06-13 09:22:00,
2013-06-13 05:32:00,79.0,78.0,-100.00,WSW,250,5.0,-999.0,96,0.00,,,-99.99,,2013-06-13 09:32:00,
2013-06-13 05:42:00,79.0,78.0,-100.00,WSW,250,5.0,-999.0,96,0.00,,,-99.99,,2013-06-13 09:42:00,
2013-06-13 06:12:00,79.0,77.0,-100.00,WSW,251,5.0,-999.0,95,0.00,,,-99.99,,2013-06-13 10:12:00,
2013-06-13 06:22:00,79.0,77.0,-100.00,WSW,251,5.0,-999.0,95,0.00,,,-99.99,,2013-06-13 10:22:00,
2013-06-13 06:33:00,79.0,77.0,-100.00,WSW,251,5.0,-999.0,95,0.00,,,-99.99,,2013-06-13 10:33:00,
2013-06-13 06:43:00,79.0,77.0,-100.00,WSW,251,5.0,-999.0,95,0.00,,,-99.99,,2013-06-13 10:43:00,
2013-06-13 07:24:00,79.0,77.0,-100.00,WSW,250,5.0,-999.0,94,0.00,,,-99.99,,2013-06-13 11:24:00,
2013-06-13 07:32:00,79.0,77.0,-100.00,WSW,250,5.0,-999.0,94,0.00,,,-99.99,,2013-06-13 11:32:00,
2013-06-13 07:42:00,79.0,77.0,-100.00,WSW,250,5.0,-999.0,94,0.00,,,-99.99,,2013-06-13 11:42:00,
2013-06-13 08:22:00,80.0,78.0,-100.00,WSW,251,6.0,-999.0,92,0.00,,,-99.99,,2013-06-13 12:22:00,
2013-06-13 08:35:00,80.0,78.0,-100.00,WSW,251,6.0,-999.0,92,0.00,,,-99.99,,2013-06-13 12:35:00,
2013-06-13 08:43:00,80.0,78.0,-100.00,WSW,251,6.0,-999.0,92,0.00,,,-99.99,,2013-06-13 12:43:00,
2013-06-13 09:22:00,84.0,78.0,-100.00,West,261,7.0,-999.0,81,0.00,,,-99.99,,2013-06-13 13:22:00,
2013-06-13 09:33:00,84.0,78.0,-100.00,West,261,7.0,-999.0,81,0.00,,,-99.99,,2013-06-13 13:33:00,
2013-06-13 09:43:00,84.0,78.0,-100.00,West,261,7.0,-999.0,81,0.00,,,-99.99,,2013-06-13 13:43:00,
2013-06-13 10:22:00,87.0,77.0,-100.00,WSW,251,8.0,-999.0,72,0.00,,,-99.99,,2013-06-13 14:22:00,
2013-06-13 10:33:00,87.0,77.0,-100.00,WSW,251,8.0,-999.0,72,0.00,,,-99.99,,2013-06-13 14:33:00,
2013-06-13 10:43:00,87.0,77.0,-100.00,WSW,251,8.0,-999.0,72,0.00,,,-99.99,,2013-06-13 14:43:00,
2013-06-13 11:22:00,89.0,77.0,-100.00,WSW,254,10.0,-999.0,67,0.00,,,-99.99,,2013-06-13 15:22:00,
2013-06-13 11:33:00,89.0,77.0,-100.00,WSW,254,10.0,-999.0,67,0.00,,,-99.99,,2013-06-13 15:33:00,
2013-06-13 11:43:00,89.0,-99.9,-100.00,WSW,254,10.0,-999.0,67,0.00,,,-99.99,,2013-06-13 15:43:00,
2013-06-13 12:22:00,91.0,75.0,-100.00,WSW,247,13.0,-999.0,60,0.00,,,-99.99,,2013-06-13 16:22:00,
2013-06-13 12:33:00,91.0,75.0,-100.00,WSW,247,13.0,-999.0,60,0.00,,,-99.99,,2013-06-13 16:33:00,
2013-06-13 12:43:00,91.0,75.0,-100.00,WSW,247,13.0,-999.0,60,0.00,,,-99.99,,2013-06-13 16:43:00,
2013-06-13 13:25:00,92.0,-99.9,-100.00,WSW,238,16.0,-999.0,55,0.00,,,-99.99,,2013-06-13 17:25:00,
2013-06-13 13:33:00,92.0,-99.9,-100.00,WSW,238,16.0,-999.0,55,0.00,,,-99.99,,2013-06-13 17:33:00,
2013-06-13 13:43:00,92.0,-99.9,-100.00,WSW,238,16.0,-999.0,55,0.00,,,-99.99,,2013-06-13 17:43:00,
2013-06-13 14:22:00,93.0,73.0,-100.00,WSW,246,14.0,-999.0,53,0.00,,,-99.99,,2013-06-13 18:22:00,
2013-06-13 14:33:00,93.0,73.0,-100.00,WSW,246,14.0,-999.0,53,0.00,,,-99.99,,2013-06-13 18:33:00,
2013-06-13 14:43:00,93.0,73.0,-100.00,WSW,246,14.0,-999.0,53,0.00,,,-99.99,,2013-06-13 18:43:00,
2013-06-13 15:22:00,94.0,72.0,-100.00,WSW,243,14.0,-999.0,50,0.00,,,-99.99,,2013-06-13 19:22:00,
2013-06-13 15:33:00,94.0,72.0,-100.00,WSW,243,14.0,-999.0,50,0.00,,,-99.99,,2013-06-13 19:33:00,
2013-06-13 15:43:00,94.0,72.0,-100.00,WSW,243,14.0,-999.0,50,0.00,,,-99.99,,2013-06-13 19:43:00,
2013-06-13 16:22:00,94.0,73.0,-100.00,WSW,239,16.0,-999.0,51,0.00,,,-99.99,,2013-06-13 20:22:00,
2013-06-13 16:33:00,94.0,73.0,-100.00,WSW,239,16.0,-999.0,51,0.00,,,-99.99,,2013-06-13 20:33:00,
2013-06-13 16:44:00,94.0,73.0,-100.00,WSW,239,16.0,-999.0,51,0.00,,,-99.99,,2013-06-13 20:44:00,
2013-06-13 17:22:00,94.0,74.0,-100.00,WSW,247,13.0,-999.0,52,0.00,,,-99.99,,2013-06-13 21:22:00,
2013-06-13 17:34:00,94.0,74.0,-100.00,WSW,247,13.0,-999.0,52,0.00,,,-99.99,,2013-06-13 21:34:00,
2013-06-13 17:43:00,94.0,74.0,-100.00,WSW,247,13.0,-999.0,52,0.00,,,-99.99,,2013-06-13 21:43:00,
2013-06-13 18:22:00,93.0,74.0,-100.00,WSW,239,14.0,-999.0,53,0.00,,,-99.99,,2013-06-13 22:22:00,
2013-06-13 18:33:00,93.0,74.0,-100.00,WSW,239,14.0,-999.0,53,0.00,,,-99.99,,2013-06-13 22:33:00,
2013-06-13 18:43:00,93.0,74.0,-100.00,WSW,239,14.0,-999.0,53,0.00,,,-99.99,,2013-06-13 22:43:00,
2013-06-13 19:22:00,90.0,79.0,-100.00,SW,223,13.0,-999.0,69,0.00,,,-99.99,,2013-06-13 23:22:00,
2013-06-13 19:32:00,90.0,79.0,-100.00,SW,223,13.0,-999.0,69,0.00,,,-99.99,,2013-06-13 23:32:00,
2013-06-13 19:43:00,90.0,79.0,-100.00,SW,223,13.0,-999.0,69,0.00,,,-99.99,,2013-06-13 23:43:00,
2013-06-13 20:12:00,87.0,79.0,-100.00,SW,221,13.0,-999.0,77,0.00,,,-99.99,,2013-06-14 00:12:00,
2013-06-13 20:22:00,87.0,79.0,-100.00,SW,221,13.0,-999.0,77,0.00,,,-99.99,,2013-06-14 00:22:00,
2013-06-13 20:34:00,87.0,79.0,-100.00,SW,221,13.0,-999.0,77,0.00,,,-99.99,,2013-06-14 00:34:00,
2013-06-13 20:43:00,87.0,79.0,-100.00,SW,221,13.0,-999.0,77,0.00,,,-99.99,,2013-06-14 00:43:00,
2013-06-13 21:22:00,84.0,79.0,-100.00,SW,223,12.0,-999.0,85,0.00,,,-99.99,,2013-06-14 01:22:00,
2013-06-13 21:33:00,84.0,79.0,-100.00,SW,223,12.0,-999.0,85,0.00,,,-99.99,,2013-06-14 01:33:00,
2013-06-13 21:43:00,84.0,79.0,-100.00,SW,223,12.0,-999.0,85,0.00,,,-99.99,,2013-06-14 01:43:00,
2013-06-13 22:22:00,83.0,79.0,-100.00,SW,218,14.0,-999.0,87,0.00,,,-99.99,,2013-06-14 02:22:00,
2013-06-13 22:33:00,83.0,79.0,-100.00,SW,218,14.0,-999.0,87,0.00,,,-99.99,,2013-06-14 02:33:00,
2013-06-13 22:43:00,83.0,79.0,-100.00,SW,218,14.0,-999.0,87,0.00,,,-99.99,,2013-06-14 02:43:00,
2013-06-13 23:22:00,84.0,78.0,-100.00,SW,228,11.0,-999.0,82,0.00,,,-99.99,,2013-06-14 03:22:00,
2013-06-13 23:34:00,84.0,78.0,-100.00,SW,228,11.0,-999.0,82,0.00,,,-99.99,,2013-06-14 03:34:00,
2013-06-13 23:43:00,84.0,78.0,-100.00,SW,228,11.0,-999.0,82,0.00,,,-99.99,,2013-06-14 03:43:00,